Terminal Aerodrome Forecast
Issued by NWS Grand Forks, ND

Home | Current Version | Previous Version | Text Only | Print | Product List | Glossary Off
Versions: 1 2 3 4 5 6 7 8 9 10 11 12 13 14 15 16 17 18 19 20 21

837
FTUS43 KFGF 201011 AAB
TAFFAR
TAF AMD
KFAR 201011Z 2010/2106 16015G22KT P6SM VCSH BKN100
     FM201400 17013KT P6SM VCSH OVC080
     FM201700 23009KT P6SM OVC050
     FM202100 27013G21KT P6SM SCT080=

USA.gov is the U.S. government's official web portal to all federal, state and local government web resources and services.